Time;durP1;ratioP1;P1;durP2;ratioP2;P2;SDS_P1;SDS_P2;PMS_P1;PMS_P2;Temp;Humidity;BMP_temperature;BMP_pressure;BME280_temperature;BME280_humidity;BME280_pressure;Samples;Min_cycle;Max_cycle;Signal;HPM_P1;HPM_P2
2022/08/30 00:01:01;;;;;;;10.15;5.07;;;;;;;;;;4992329;28;20093;-72
2022/08/30 00:03:27;;;;;;;9.48;4.97;;;;;;;;;;4993092;28;20524;-72
2022/08/30 00:05:54;;;;;;;9.38;5.00;;;;;;;;;;4992775;28;20046;-71
2022/08/30 00:08:20;;;;;;;9.55;5.13;;;;;;;;;;4990724;28;20042;-72
2022/08/30 00:10:49;;;;;;;10.48;4.95;;;;;;;;;;4975968;28;20057;-72
2022/08/30 00:13:16;;;;;;;9.77;5.18;;;;;;;;;;4978361;28;20442;-72
2022/08/30 00:15:43;;;;;;;13.40;5.40;;;;;;;;;;4977248;28;20054;-72
2022/08/30 00:18:09;;;;;;;9.98;5.05;;;;;;;;;;4976346;28;20047;-72
2022/08/30 00:20:36;;;;;;;8.35;4.95;;;;;;;;;;4993841;28;20043;-72
2022/08/30 00:23:03;;;;;;;8.45;5.07;;;;;;;;;;4993920;28;20044;-72
2022/08/30 00:25:29;;;;;;;10.30;5.22;;;;;;;;;;4993427;28;20046;-72
2022/08/30 00:27:55;;;;;;;10.32;5.38;;;;;;;;;;4992573;28;20141;-72
2022/08/30 00:30:21;;;;;;;11.40;5.43;;;;;;;;;;4976659;28;20054;-72
2022/08/30 00:32:48;;;;;;;12.93;5.88;;;;;;;;;;4990280;28;20049;-72
2022/08/30 00:35:15;;;;;;;10.18;5.57;;;;;;;;;;4992410;28;20042;-72
2022/08/30 00:37:41;;;;;;;9.82;5.93;;;;;;;;;;4991015;28;20046;-72
2022/08/30 00:40:08;;;;;;;9.50;5.55;;;;;;;;;;4973159;28;20046;-72
2022/08/30 00:42:35;;;;;;;7.90;5.53;;;;;;;;;;4957824;28;20478;-72
2022/08/30 00:45:01;;;;;;;8.98;5.55;;;;;;;;;;4992383;28;20406;-72
2022/08/30 00:47:27;;;;;;;9.75;5.97;;;;;;;;;;4993063;28;20097;-72
2022/08/30 00:49:54;;;;;;;13.13;6.20;;;;;;;;;;4993456;28;20093;-72
2022/08/30 00:52:21;;;;;;;10.52;6.45;;;;;;;;;;4991337;28;20053;-73
2022/08/30 00:54:47;;;;;;;12.77;6.57;;;;;;;;;;4991816;28;20039;-72
2022/08/30 00:57:15;;;;;;;11.70;6.63;;;;;;;;;;4992776;28;20043;-72
2022/08/30 00:59:42;;;;;;;10.15;6.65;;;;;;;;;;4989431;28;20096;-72
2022/08/30 01:02:09;;;;;;;10.23;6.88;;;;;;;;;;4992300;28;20390;-72
2022/08/30 01:04:35;;;;;;;10.55;6.88;;;;;;;;;;4992397;28;20142;-72
2022/08/30 01:07:02;;;;;;;9.15;6.63;;;;;;;;;;4972196;28;20097;-72
2022/08/30 01:09:28;;;;;;;9.65;6.20;;;;;;;;;;4991691;28;20046;-73
2022/08/30 01:11:55;;;;;;;9.43;6.68;;;;;;;;;;4991854;28;20085;-73
2022/08/30 01:14:21;;;;;;;8.32;6.13;;;;;;;;;;4993075;28;20394;-72
2022/08/30 01:16:48;;;;;;;9.85;6.75;;;;;;;;;;4992839;28;20509;-73
2022/08/30 01:19:23;;;;;;;11.95;6.70;;;;;;;;;;4993336;28;20528;-73
2022/08/30 01:21:53;;;;;;;10.85;6.78;;;;;;;;;;4958405;28;20054;-73
2022/08/30 01:24:20;;;;;;;8.65;6.40;;;;;;;;;;4990510;28;20034;-73
2022/08/30 01:26:46;;;;;;;10.27;7.03;;;;;;;;;;4992169;28;20046;-72
2022/08/30 01:29:14;;;;;;;11.75;7.50;;;;;;;;;;4993142;28;20043;-73
2022/08/30 01:31:41;;;;;;;10.50;7.00;;;;;;;;;;4973374;28;20050;-73
2022/08/30 01:34:07;;;;;;;11.77;7.50;;;;;;;;;;4972127;28;20137;-73
2022/08/30 01:36:35;;;;;;;10.68;7.55;;;;;;;;;;4989985;28;20042;-73
2022/08/30 01:39:01;;;;;;;11.52;7.35;;;;;;;;;;4987043;28;20089;-72
2022/08/30 01:41:29;;;;;;;10.73;7.43;;;;;;;;;;4991003;28;20042;-72
2022/08/30 01:43:57;;;;;;;9.25;7.18;;;;;;;;;;4959489;28;20051;-73
2022/08/30 01:46:25;;;;;;;13.35;7.53;;;;;;;;;;4989733;28;20055;-73
2022/08/30 01:48:52;;;;;;;10.77;7.50;;;;;;;;;;4989990;28;20113;-71
2022/08/30 01:51:18;;;;;;;9.48;7.50;;;;;;;;;;4990626;28;20134;-72
2022/08/30 01:53:44;;;;;;;13.20;7.07;;;;;;;;;;4990937;28;20050;-72
2022/08/30 01:56:11;;;;;;;12.65;7.60;;;;;;;;;;4988390;28;20053;-72
2022/08/30 01:58:38;;;;;;;10.40;6.43;;;;;;;;;;4971345;28;20041;-72
2022/08/30 02:01:06;;;;;;;10.40;6.63;;;;;;;;;;4991657;28;20053;-72
2022/08/30 02:03:34;;;;;;;11.15;6.10;;;;;;;;;;4991269;28;20049;-72
2022/08/30 02:06:07;;;;;;;8.93;6.78;;;;;;;;;;4991194;28;20567;-72
2022/08/30 02:08:34;;;;;;;11.93;7.32;;;;;;;;;;4988541;28;20449;-72
2022/08/30 02:11:00;;;;;;;11.20;6.80;;;;;;;;;;4988409;28;20081;-72
2022/08/30 02:13:27;;;;;;;11.77;6.88;;;;;;;;;;4991183;28;20040;-71
2022/08/30 02:15:53;;;;;;;15.30;7.03;;;;;;;;;;4989284;28;20453;-73
2022/08/30 02:18:19;;;;;;;10.00;7.05;;;;;;;;;;4991289;28;20049;-73
2022/08/30 02:20:45;;;;;;;9.00;6.18;;;;;;;;;;4974116;28;20043;-72
2022/08/30 02:23:11;;;;;;;12.80;6.65;;;;;;;;;;4983180;28;20401;-73
2022/08/30 02:25:37;;;;;;;10.20;6.63;;;;;;;;;;4994411;28;20039;-73
2022/08/30 02:28:04;;;;;;;11.15;6.78;;;;;;;;;;4994653;28;20049;-72
2022/08/30 02:30:30;;;;;;;11.85;6.60;;;;;;;;;;4957588;28;1056421;-72
2022/08/30 02:32:57;;;;;;;11.75;6.63;;;;;;;;;;4992494;28;20422;-72
2022/08/30 02:35:23;;;;;;;10.95;6.70;;;;;;;;;;4995332;28;20042;-72
2022/08/30 02:37:49;;;;;;;9.88;6.55;;;;;;;;;;4953090;28;20042;-72
2022/08/30 02:40:17;;;;;;;9.90;6.85;;;;;;;;;;4988856;28;20042;-72
2022/08/30 02:42:43;;;;;;;10.95;6.88;;;;;;;;;;4993441;28;20505;-72
2022/08/30 02:45:09;;;;;;;10.52;6.93;;;;;;;;;;4992806;28;20034;-73
2022/08/30 02:47:35;;;;;;;8.90;7.22;;;;;;;;;;4992772;28;20042;-73
2022/08/30 02:50:04;;;;;;;10.80;6.68;;;;;;;;;;4993355;28;20412;-73
2022/08/30 02:52:30;;;;;;;9.75;7.20;;;;;;;;;;4994834;28;20042;-73
2022/08/30 02:54:56;;;;;;;9.15;6.63;;;;;;;;;;4992304;28;20043;-73
2022/08/30 02:57:22;;;;;;;10.13;7.10;;;;;;;;;;4990684;28;20046;-73
2022/08/30 02:59:49;;;;;;;8.40;6.78;;;;;;;;;;4976133;28;20046;-72
2022/08/30 03:02:15;;;;;;;9.48;6.63;;;;;;;;;;4995834;28;20049;-73
2022/08/30 03:04:43;;;;;;;10.40;7.40;;;;;;;;;;4995729;28;20453;-73
2022/08/30 03:07:11;;;;;;;10.85;7.10;;;;;;;;;;4994940;28;20050;-73
2022/08/30 03:09:37;;;;;;;9.68;7.60;;;;;;;;;;4993648;28;20142;-72
2022/08/30 03:12:05;;;;;;;15.55;8.43;;;;;;;;;;4994897;28;20069;-73
2022/08/30 03:14:32;;;;;;;12.98;9.55;;;;;;;;;;4994206;28;20458;-72
2022/08/30 03:16:58;;;;;;;11.15;8.65;;;;;;;;;;4976742;28;20069;-73
2022/08/30 03:19:24;;;;;;;12.93;8.55;;;;;;;;;;4992148;28;20081;-73
2022/08/30 03:21:53;;;;;;;16.00;9.40;;;;;;;;;;4993670;28;20578;-73
2022/08/30 03:24:19;;;;;;;12.43;9.85;;;;;;;;;;4993055;28;20062;-72
2022/08/30 03:26:45;;;;;;;13.13;9.70;;;;;;;;;;4992352;28;20042;-72
2022/08/30 03:29:11;;;;;;;11.05;9.27;;;;;;;;;;4994505;28;20058;-73
2022/08/30 03:31:37;;;;;;;12.88;9.88;;;;;;;;;;4991887;28;20054;-73
2022/08/30 03:34:04;;;;;;;11.98;9.95;;;;;;;;;;4994508;28;20053;-72
2022/08/30 03:36:30;;;;;;;11.70;9.82;;;;;;;;;;4992952;28;20417;-72
2022/08/30 03:38:56;;;;;;;13.15;9.82;;;;;;;;;;4975532;28;20054;-72
2022/08/30 03:41:23;;;;;;;12.20;10.48;;;;;;;;;;4993337;28;20128;-73
2022/08/30 03:43:49;;;;;;;13.10;9.95;;;;;;;;;;4993220;28;20049;-71
2022/08/30 03:46:15;;;;;;;13.63;10.30;;;;;;;;;;4992650;28;20039;-71
2022/08/30 03:48:42;;;;;;;13.45;10.52;;;;;;;;;;4975273;28;20068;-72
2022/08/30 03:51:08;;;;;;;16.52;10.80;;;;;;;;;;4959904;28;20049;-71
2022/08/30 03:53:34;;;;;;;13.13;10.75;;;;;;;;;;4976835;28;20042;-72
2022/08/30 03:56:00;;;;;;;12.90;10.50;;;;;;;;;;4959354;28;20104;-72
2022/08/30 03:58:27;;;;;;;12.73;10.93;;;;;;;;;;4973397;28;20049;-72
2022/08/30 04:00:53;;;;;;;14.32;10.45;;;;;;;;;;4993007;28;20413;-72
2022/08/30 04:03:24;;;;;;;14.50;10.32;;;;;;;;;;4974372;28;20042;-72
2022/08/30 04:05:50;;;;;;;12.10;10.32;;;;;;;;;;4991341;28;20060;-72
2022/08/30 04:08:16;;;;;;;13.10;10.63;;;;;;;;;;4994333;28;20034;-72
2022/08/30 04:10:43;;;;;;;15.10;11.38;;;;;;;;;;4976767;28;20109;-72
2022/08/30 04:13:09;;;;;;;14.02;10.27;;;;;;;;;;4991657;28;20137;-72
2022/08/30 04:15:35;;;;;;;14.15;10.38;;;;;;;;;;4993975;28;20085;-72
2022/08/30 04:18:01;;;;;;;15.32;11.52;;;;;;;;;;4975866;28;20069;-72
2022/08/30 04:20:27;;;;;;;12.55;10.38;;;;;;;;;;4991440;28;20409;-72
2022/08/30 04:22:52;;;;;;;16.45;10.32;;;;;;;;;;4990703;28;20520;-72
2022/08/30 04:25:19;;;;;;;12.38;10.55;;;;;;;;;;4994381;28;20077;-72
2022/08/30 04:27:45;;;;;;;16.33;10.85;;;;;;;;;;4975391;28;20062;-72
2022/08/30 04:30:12;;;;;;;14.90;11.90;;;;;;;;;;4993325;28;20105;-72
2022/08/30 04:32:38;;;;;;;15.55;11.73;;;;;;;;;;4990496;28;20458;-72
2022/08/30 04:35:04;;;;;;;15.48;11.65;;;;;;;;;;4990876;28;20050;-72
2022/08/30 04:37:30;;;;;;;16.05;12.10;;;;;;;;;;4990843;28;20417;-71
2022/08/30 04:39:59;;;;;;;14.15;12.00;;;;;;;;;;4986610;28;20411;-72
2022/08/30 04:42:29;;;;;;;15.23;12.15;;;;;;;;;;4988784;28;20065;-72
2022/08/30 04:44:55;;;;;;;15.40;12.50;;;;;;;;;;4976434;28;20058;-72
2022/08/30 04:47:21;;;;;;;15.20;11.55;;;;;;;;;;4978520;28;20150;-72
2022/08/30 04:49:47;;;;;;;13.90;11.73;;;;;;;;;;4984921;28;20043;-73
2022/08/30 04:52:13;;;;;;;14.30;11.45;;;;;;;;;;4990105;28;20043;-71
2022/08/30 04:54:39;;;;;;;14.70;11.52;;;;;;;;;;4972617;28;20081;-72
2022/08/30 04:57:06;;;;;;;13.70;12.23;;;;;;;;;;4992973;28;20042;-72
2022/08/30 04:59:33;;;;;;;14.73;12.10;;;;;;;;;;4992965;28;20138;-72
2022/08/30 05:01:59;;;;;;;15.05;12.00;;;;;;;;;;4983150;28;20057;-72
2022/08/30 05:04:25;;;;;;;15.90;11.13;;;;;;;;;;4989082;28;20143;-73
2022/08/30 05:06:51;;;;;;;14.10;11.68;;;;;;;;;;4990790;28;20506;-73
2022/08/30 05:09:17;;;;;;;13.10;11.73;;;;;;;;;;4970147;28;20087;-72
2022/08/30 05:11:45;;;;;;;16.15;12.63;;;;;;;;;;4990414;28;20054;-72
2022/08/30 05:14:11;;;;;;;15.13;11.27;;;;;;;;;;4991758;28;20479;-72
2022/08/30 05:16:37;;;;;;;15.18;12.43;;;;;;;;;;4959262;28;20051;-73
2022/08/30 05:19:03;;;;;;;13.50;11.73;;;;;;;;;;4973088;28;20118;-73
2022/08/30 05:21:29;;;;;;;14.63;12.23;;;;;;;;;;4987241;28;20049;-73
2022/08/30 05:23:56;;;;;;;14.57;11.93;;;;;;;;;;4968003;28;20153;-72
2022/08/30 05:26:24;;;;;;;15.25;11.68;;;;;;;;;;4974307;28;20042;-73
2022/08/30 05:28:50;;;;;;;13.77;10.13;;;;;;;;;;4991985;28;20050;-72
2022/08/30 05:31:17;;;;;;;12.30;9.63;;;;;;;;;;4990967;28;20069;-72
2022/08/30 05:33:44;;;;;;;9.63;8.27;;;;;;;;;;4985987;28;20050;-72
2022/08/30 05:36:11;;;;;;;13.27;7.90;;;;;;;;;;4981694;28;20057;-72
2022/08/30 05:38:37;;;;;;;12.05;7.25;;;;;;;;;;4963135;28;20042;-72
2022/08/30 05:41:03;;;;;;;10.93;6.40;;;;;;;;;;4990800;28;20112;-72
2022/08/30 05:43:29;;;;;;;8.52;6.15;;;;;;;;;;4987538;28;20058;-72
2022/08/30 05:45:59;;;;;;;7.63;5.97;;;;;;;;;;4990964;28;20512;-72
2022/08/30 05:48:25;;;;;;;9.70;5.63;;;;;;;;;;4983962;28;20050;-72
2022/08/30 05:51:00;;;;;;;10.07;5.30;;;;;;;;;;4991574;28;20061;-72
2022/08/30 05:53:26;;;;;;;7.85;5.15;;;;;;;;;;4990103;28;20078;-72
2022/08/30 05:55:52;;;;;;;9.25;5.18;;;;;;;;;;4990288;28;20421;-72
2022/08/30 05:58:18;;;;;;;7.38;5.28;;;;;;;;;;4988070;28;20053;-72
2022/08/30 06:00:44;;;;;;;7.68;5.10;;;;;;;;;;4991662;28;20045;-72
2022/08/30 06:03:11;;;;;;;7.97;4.95;;;;;;;;;;4991613;28;20042;-72
2022/08/30 06:05:37;;;;;;;7.85;5.00;;;;;;;;;;4982954;28;20128;-71
2022/08/30 06:08:03;;;;;;;7.35;4.95;;;;;;;;;;4988161;28;20137;-70
2022/08/30 06:10:29;;;;;;;7.70;4.57;;;;;;;;;;4990310;28;20051;-70
2022/08/30 06:12:56;;;;;;;8.73;5.38;;;;;;;;;;4989952;28;20045;-70
2022/08/30 06:15:22;;;;;;;6.28;4.30;;;;;;;;;;4990620;28;20404;-70
2022/08/30 06:17:48;;;;;;;9.27;4.72;;;;;;;;;;4944499;28;20254;-71
2022/08/30 06:20:17;;;;;;;9.75;4.63;;;;;;;;;;4989708;28;20046;-70
2022/08/30 06:22:43;;;;;;;7.65;4.00;;;;;;;;;;4992005;28;20046;-70
2022/08/30 06:25:09;;;;;;;9.07;3.85;;;;;;;;;;4990906;28;20053;-70
2022/08/30 06:27:35;;;;;;;6.28;3.90;;;;;;;;;;4991182;28;20365;-69
2022/08/30 06:30:01;;;;;;;7.50;3.55;;;;;;;;;;4990601;28;20048;-70
2022/08/30 06:32:27;;;;;;;7.45;3.65;;;;;;;;;;4989272;28;20501;-70
2022/08/30 06:34:53;;;;;;;8.10;3.60;;;;;;;;;;4981570;28;20461;-70
2022/08/30 06:37:19;;;;;;;8.05;3.67;;;;;;;;;;4990042;28;20555;-70
2022/08/30 06:39:45;;;;;;;7.70;3.65;;;;;;;;;;4990134;28;20147;-70
2022/08/30 06:42:11;;;;;;;8.02;3.30;;;;;;;;;;4957986;28;20414;-70
2022/08/30 06:44:38;;;;;;;6.68;3.10;;;;;;;;;;4991664;28;20047;-70
2022/08/30 06:47:04;;;;;;;8.50;3.40;;;;;;;;;;4993953;28;20057;-70
2022/08/30 06:49:30;;;;;;;7.35;3.13;;;;;;;;;;4989765;28;20096;-70
2022/08/30 06:51:56;;;;;;;5.78;2.80;;;;;;;;;;4962970;28;20049;-69
2022/08/30 06:54:22;;;;;;;7.57;3.25;;;;;;;;;;4987197;28;20545;-69
2022/08/30 06:56:48;;;;;;;6.97;3.20;;;;;;;;;;4989238;28;20129;-70
2022/08/30 06:59:15;;;;;;;7.45;2.80;;;;;;;;;;4981298;28;20042;-70
2022/08/30 07:01:41;;;;;;;7.53;2.92;;;;;;;;;;4990622;28;20093;-69
2022/08/30 07:04:07;;;;;;;6.15;3.20;;;;;;;;;;4990363;28;20050;-70
2022/08/30 07:06:33;;;;;;;6.60;3.15;;;;;;;;;;4993614;28;20064;-70
2022/08/30 07:08:59;;;;;;;6.78;2.75;;;;;;;;;;4990591;28;20047;-70
2022/08/30 07:11:36;;;;;;;6.07;2.65;;;;;;;;;;4977149;28;20509;-71
2022/08/30 07:14:02;;;;;;;9.73;3.25;;;;;;;;;;4993721;28;20034;-69
2022/08/30 07:16:29;;;;;;;5.53;2.70;;;;;;;;;;4995239;28;20042;-70
2022/08/30 07:18:55;;;;;;;7.43;2.72;;;;;;;;;;4994934;28;20053;-69
2022/08/30 07:21:26;;;;;;;5.65;2.67;;;;;;;;;;4990815;28;20070;-70
2022/08/30 07:23:53;;;;;;;6.70;2.60;;;;;;;;;;4991642;28;20532;-69
2022/08/30 07:26:22;;;;;;;7.63;2.70;;;;;;;;;;4977722;28;20089;-71
2022/08/30 07:28:48;;;;;;;6.07;2.67;;;;;;;;;;4989630;28;20042;-69
2022/08/30 07:31:15;;;;;;;7.50;2.42;;;;;;;;;;4974439;28;20137;-70
2022/08/30 07:33:42;;;;;;;6.55;2.67;;;;;;;;;;4994300;28;20084;-70
2022/08/30 07:36:08;;;;;;;6.15;2.25;;;;;;;;;;4994089;28;20125;-72
2022/08/30 07:38:34;;;;;;;9.40;2.38;;;;;;;;;;4993041;28;20034;-70
2022/08/30 07:41:00;;;;;;;5.80;2.30;;;;;;;;;;4988206;28;20486;-71
2022/08/30 07:43:27;;;;;;;7.25;2.28;;;;;;;;;;4994403;28;20417;-70
2022/08/30 07:45:53;;;;;;;5.05;1.90;;;;;;;;;;4992840;28;20052;-70
2022/08/30 07:48:19;;;;;;;6.15;2.28;;;;;;;;;;4976851;28;20050;-70
2022/08/30 07:50:46;;;;;;;5.93;2.35;;;;;;;;;;4993569;28;20105;-69
2022/08/30 07:53:12;;;;;;;6.45;2.08;;;;;;;;;;4989642;28;20129;-69
2022/08/30 07:55:39;;;;;;;4.75;1.85;;;;;;;;;;4994083;28;20444;-71
2022/08/30 07:58:05;;;;;;;6.43;2.33;;;;;;;;;;4993331;28;20143;-70
2022/08/30 08:00:31;;;;;;;6.95;2.28;;;;;;;;;;4976067;28;20421;-70
2022/08/30 08:02:57;;;;;;;4.93;2.00;;;;;;;;;;4994043;28;20438;-69
2022/08/30 08:05:23;;;;;;;6.45;2.10;;;;;;;;;;4993163;28;20059;-70
2022/08/30 08:07:49;;;;;;;6.22;2.00;;;;;;;;;;4993095;28;20058;-68
2022/08/30 08:10:17;;;;;;;5.53;1.80;;;;;;;;;;4988544;28;20060;-71
2022/08/30 08:12:43;;;;;;;6.43;1.85;;;;;;;;;;4992776;28;20050;-70
2022/08/30 08:15:09;;;;;;;6.68;2.00;;;;;;;;;;4992653;28;20057;-71
2022/08/30 08:17:35;;;;;;;5.50;1.67;;;;;;;;;;4994352;28;20109;-71
2022/08/30 08:20:02;;;;;;;5.40;1.88;;;;;;;;;;4994082;28;20482;-71
2022/08/30 08:22:28;;;;;;;5.90;1.83;;;;;;;;;;4992704;28;20622;-71
2022/08/30 08:24:54;;;;;;;6.15;2.00;;;;;;;;;;4976711;28;20083;-71
2022/08/30 08:27:20;;;;;;;8.05;1.83;;;;;;;;;;4994242;28;20050;-70
2022/08/30 08:29:46;;;;;;;8.00;1.50;;;;;;;;;;4976355;28;20133;-71
2022/08/30 08:32:12;;;;;;;7.50;1.60;;;;;;;;;;4993767;28;20038;-71
2022/08/30 08:34:40;;;;;;;6.20;1.70;;;;;;;;;;4993937;28;20058;-70
2022/08/30 08:37:06;;;;;;;4.68;1.80;;;;;;;;;;4976020;28;20490;-70
2022/08/30 08:39:32;;;;;;;4.13;1.63;;;;;;;;;;4993778;28;20046;-70
2022/08/30 08:42:04;;;;;;;6.50;1.55;;;;;;;;;;4993745;28;20093;-70
2022/08/30 08:44:39;;;;;;;5.82;1.58;;;;;;;;;;4993834;28;20042;-71
2022/08/30 08:47:23;;;;;;;4.60;1.50;;;;;;;;;;4992703;28;20096;-71
2022/08/30 08:49:51;;;;;;;4.70;1.80;;;;;;;;;;4993570;28;20093;-71
2022/08/30 08:55:11;;;;;;;6.18;1.60;;;;;;;;;;4993677;28;20081;-71
2022/08/30 08:57:37;;;;;;;4.82;1.75;;;;;;;;;;4993577;28;20054;-70
2022/08/30 09:00:07;;;;;;;9.32;1.98;;;;;;;;;;4993496;28;20042;-71
2022/08/30 09:02:39;;;;;;;6.35;1.40;;;;;;;;;;4993152;28;20130;-70
2022/08/30 09:05:05;;;;;;;4.88;1.45;;;;;;;;;;4975896;28;20074;-70
2022/08/30 09:07:39;;;;;;;5.43;1.20;;;;;;;;;;4993553;28;20054;-71
2022/08/30 09:10:05;;;;;;;5.40;1.73;;;;;;;;;;4992473;28;20564;-71
2022/08/30 09:12:31;;;;;;;4.57;1.30;;;;;;;;;;4975940;28;20080;-70
2022/08/30 09:15:03;;;;;;;3.20;1.27;;;;;;;;;;4993395;28;20038;-71
2022/08/30 09:17:29;;;;;;;4.60;1.50;;;;;;;;;;4993540;28;20137;-71
2022/08/30 09:19:55;;;;;;;3.97;1.38;;;;;;;;;;4993336;28;20404;-71
2022/08/30 09:22:30;;;;;;;5.38;1.42;;;;;;;;;;4991809;28;20049;-71
2022/08/30 09:25:17;;;;;;;3.28;1.13;;;;;;;;;;4992433;28;20061;-71
2022/08/30 09:27:44;;;;;;;5.85;1.48;;;;;;;;;;4992127;28;20055;-71
2022/08/30 09:30:11;;;;;;;5.18;1.45;;;;;;;;;;4992708;28;20058;-71
2022/08/30 09:32:41;;;;;;;7.38;1.42;;;;;;;;;;4975680;28;20088;-71
2022/08/30 09:35:18;;;;;;;5.95;1.13;;;;;;;;;;4993116;28;20042;-71
2022/08/30 09:37:48;;;;;;;4.00;1.35;;;;;;;;;;4992836;28;20038;-71
2022/08/30 09:40:16;;;;;;;4.32;1.30;;;;;;;;;;4991985;28;20489;-71
2022/08/30 09:42:57;;;;;;;7.50;1.55;;;;;;;;;;4992928;28;20133;-70
2022/08/30 09:45:28;;;;;;;4.40;1.20;;;;;;;;;;4993051;28;20042;-71
2022/08/30 09:47:57;;;;;;;5.88;1.40;;;;;;;;;;4975832;28;20506;-71
2022/08/30 09:50:26;;;;;;;5.53;1.50;;;;;;;;;;4992058;28;20043;-71
2022/08/30 09:52:59;;;;;;;4.40;1.50;;;;;;;;;;4992830;28;20137;-70
2022/08/30 09:55:32;;;;;;;3.58;1.20;;;;;;;;;;4991609;28;20081;-70
2022/08/30 09:58:00;;;;;;;4.60;1.40;;;;;;;;;;4992002;28;20055;-70
2022/08/30 10:00:30;;;;;;;5.57;1.20;;;;;;;;;;4975131;28;20061;-70
2022/08/30 10:03:07;;;;;;;4.53;1.33;;;;;;;;;;4992627;28;20042;-70
2022/08/30 10:05:52;;;;;;;5.25;1.48;;;;;;;;;;4987302;28;20457;-70
2022/08/30 10:08:25;;;;;;;5.80;1.38;;;;;;;;;;4986659;28;20052;-71
2022/08/30 10:10:57;;;;;;;4.30;1.60;;;;;;;;;;4991645;28;20101;-71
2022/08/30 10:13:42;;;;;;;6.22;1.40;;;;;;;;;;4992473;28;20077;-70
2022/08/30 10:16:11;;;;;;;4.35;1.20;;;;;;;;;;4992576;28;20038;-70
2022/08/30 10:18:48;;;;;;;3.78;1.23;;;;;;;;;;4992528;28;20046;-70
2022/08/30 10:21:18;;;;;;;4.88;1.40;;;;;;;;;;4992357;28;20113;-70
2022/08/30 10:23:47;;;;;;;4.53;1.30;;;;;;;;;;4992358;28;20054;-70
2022/08/30 10:26:17;;;;;;;4.72;1.35;;;;;;;;;;4991023;28;20054;-71
2022/08/30 10:28:55;;;;;;;4.38;1.45;;;;;;;;;;4990400;28;20070;-70
2022/08/30 10:31:23;;;;;;;4.70;1.35;;;;;;;;;;4991934;28;20059;-71
2022/08/30 10:33:52;;;;;;;5.93;1.55;;;;;;;;;;4992216;28;20493;-71
2022/08/30 10:36:19;;;;;;;6.13;1.58;;;;;;;;;;4992218;28;20410;-70
2022/08/30 10:38:47;;;;;;;5.15;1.30;;;;;;;;;;4992112;28;20105;-70
2022/08/30 10:41:27;;;;;;;7.25;1.50;;;;;;;;;;4993747;28;20057;-70
2022/08/30 10:43:56;;;;;;;4.72;1.25;;;;;;;;;;4994055;28;20112;-70
2022/08/30 10:46:32;;;;;;;5.72;1.30;;;;;;;;;;4996034;28;20050;-70
2022/08/30 10:49:00;;;;;;;4.75;1.45;;;;;;;;;;4996079;28;20058;-70
2022/08/30 10:51:38;;;;;;;4.70;1.30;;;;;;;;;;4995980;28;20050;-70
2022/08/30 10:54:17;;;;;;;5.75;1.40;;;;;;;;;;4995706;28;20418;-70
2022/08/30 10:56:45;;;;;;;6.20;1.40;;;;;;;;;;4978598;28;20165;-70
2022/08/30 10:59:11;;;;;;;5.78;1.50;;;;;;;;;;4993298;28;20053;-69
2022/08/30 11:02:00;;;;;;;4.43;1.38;;;;;;;;;;4995020;28;20465;-70
2022/08/30 11:04:58;;;;;;;6.80;1.20;;;;;;;;;;4897680;29;20060;-69
2022/08/30 11:07:34;;;;;;;4.72;1.38;;;;;;;;;;4867069;29;20060;-70
2022/08/30 11:10:00;;;;;;;4.63;1.45;;;;;;;;;;4897021;29;20061;-70
2022/08/30 11:12:45;;;;;;;5.63;1.08;;;;;;;;;;4896680;29;20393;-70
2022/08/30 11:15:14;;;;;;;4.10;1.10;;;;;;;;;;4896606;29;20061;-70
2022/08/30 11:17:54;;;;;;;4.45;1.10;;;;;;;;;;4897565;29;20128;-70
2022/08/30 11:20:30;;;;;;;4.53;1.10;;;;;;;;;;4881593;29;20223;-70
2022/08/30 11:23:12;;;;;;;4.38;1.10;;;;;;;;;;4882135;29;20155;-69
2022/08/30 11:25:48;;;;;;;4.97;1.05;;;;;;;;;;4897537;29;21232;-69
2022/08/30 11:28:34;;;;;;;4.13;1.00;;;;;;;;;;4896775;29;20471;-70
2022/08/30 11:31:04;;;;;;;3.05;1.08;;;;;;;;;;4896477;29;20060;-70
2022/08/30 11:33:40;;;;;;;6.07;0.90;;;;;;;;;;4897239;29;20064;-69
2022/08/30 11:36:06;;;;;;;5.05;1.33;;;;;;;;;;4887223;29;20486;-70
2022/08/30 11:38:32;;;;;;;3.40;1.08;;;;;;;;;;4878399;29;20049;-70
2022/08/30 11:40:58;;;;;;;3.47;1.08;;;;;;;;;;4908332;28;20066;-70
2022/08/30 11:43:33;;;;;;;4.97;1.20;;;;;;;;;;4975752;28;20128;-70
2022/08/30 11:46:26;;;;;;;4.28;1.00;;;;;;;;;;4974252;28;20043;-70
2022/08/30 11:49:06;;;;;;;3.28;1.02;;;;;;;;;;4952652;28;20502;-70
2022/08/30 11:51:33;;;;;;;5.13;1.13;;;;;;;;;;4973291;28;20096;-70
2022/08/30 11:54:17;;;;;;;4.22;0.90;;;;;;;;;;4994812;28;20050;-70
2022/08/30 11:56:51;;;;;;;4.85;1.08;;;;;;;;;;4994746;28;20050;-70
2022/08/30 11:59:22;;;;;;;7.90;1.10;;;;;;;;;;4994764;28;20114;-70
2022/08/30 12:01:49;;;;;;;5.65;1.00;;;;;;;;;;4993893;28;20505;-70
2022/08/30 12:04:18;;;;;;;4.30;1.10;;;;;;;;;;4993683;28;20522;-71
2022/08/30 12:06:44;;;;;;;2.90;1.02;;;;;;;;;;4994576;28;20122;-70
2022/08/30 12:09:12;;;;;;;4.63;1.20;;;;;;;;;;4994657;28;20062;-70
2022/08/30 12:11:38;;;;;;;2.75;0.90;;;;;;;;;;4994328;28;20046;-70
2022/08/30 12:14:05;;;;;;;3.25;1.08;;;;;;;;;;4992724;28;20062;-70
2022/08/30 12:16:36;;;;;;;2.28;0.88;;;;;;;;;;4984980;28;20049;-70
2022/08/30 12:19:23;;;;;;;3.53;0.75;;;;;;;;;;4994064;28;20050;-70
2022/08/30 12:21:56;;;;;;;3.20;0.88;;;;;;;;;;4994097;28;20047;-70
2022/08/30 12:24:31;;;;;;;4.78;0.98;;;;;;;;;;4976784;28;20050;-70
2022/08/30 12:26:58;;;;;;;3.55;0.88;;;;;;;;;;4976538;28;20061;-71
2022/08/30 12:29:25;;;;;;;4.65;1.20;;;;;;;;;;4993524;28;20034;-71
2022/08/30 12:31:53;;;;;;;4.28;0.90;;;;;;;;;;4992308;28;20070;-70
2022/08/30 12:34:25;;;;;;;3.38;1.10;;;;;;;;;;4993997;28;20104;-70
2022/08/30 12:36:51;;;;;;;2.55;0.77;;;;;;;;;;4993952;28;20050;-70
2022/08/30 12:39:22;;;;;;;3.40;1.00;;;;;;;;;;4959798;28;20049;-70
2022/08/30 12:41:48;;;;;;;3.30;1.23;;;;;;;;;;4993883;28;20153;-71
2022/08/30 12:44:22;;;;;;;3.50;1.00;;;;;;;;;;4994016;28;20126;-70
2022/08/30 12:46:50;;;;;;;4.38;1.17;;;;;;;;;;4993837;28;20105;-71
2022/08/30 12:49:17;;;;;;;4.47;1.30;;;;;;;;;;4976317;28;20053;-71
2022/08/30 12:51:44;;;;;;;3.80;1.15;;;;;;;;;;4976179;28;20042;-70
2022/08/30 12:54:13;;;;;;;3.22;1.05;;;;;;;;;;4992718;28;20087;-70
2022/08/30 12:56:46;;;;;;;2.85;1.10;;;;;;;;;;4993608;28;20054;-70
2022/08/30 12:59:32;;;;;;;2.85;0.90;;;;;;;;;;4990988;28;20061;-70
2022/08/30 13:02:15;;;;;;;3.20;0.80;;;;;;;;;;4992018;28;20046;-70
2022/08/30 13:04:42;;;;;;;3.20;0.95;;;;;;;;;;4975887;28;20046;-70
2022/08/30 13:07:08;;;;;;;2.45;0.90;;;;;;;;;;4993051;28;20050;-71
2022/08/30 13:09:35;;;;;;;3.03;0.90;;;;;;;;;;4976214;28;20046;-70
2022/08/30 13:12:02;;;;;;;3.13;0.90;;;;;;;;;;4993396;28;20389;-70
2022/08/30 13:14:36;;;;;;;4.53;1.05;;;;;;;;;;4975941;28;20088;-71
2022/08/30 13:17:07;;;;;;;4.28;1.08;;;;;;;;;;4993452;28;20089;-71
2022/08/30 13:19:33;;;;;;;3.83;1.13;;;;;;;;;;4975213;28;20398;-71
2022/08/30 13:21:59;;;;;;;3.67;0.80;;;;;;;;;;4992411;28;20050;-71
2022/08/30 13:24:26;;;;;;;4.35;1.20;;;;;;;;;;4975713;28;20157;-71
2022/08/30 13:26:53;;;;;;;2.53;0.80;;;;;;;;;;4990549;28;20046;-71
2022/08/30 13:29:21;;;;;;;3.83;0.80;;;;;;;;;;4992928;28;20046;-71
2022/08/30 13:31:47;;;;;;;2.72;1.00;;;;;;;;;;4992632;28;20501;-71
2022/08/30 13:34:13;;;;;;;4.45;1.20;;;;;;;;;;4992352;28;20046;-71
2022/08/30 13:36:42;;;;;;;4.53;1.00;;;;;;;;;;4992951;28;20056;-70
2022/08/30 13:39:08;;;;;;;2.70;0.90;;;;;;;;;;4992825;28;20512;-71
2022/08/30 13:41:34;;;;;;;5.43;1.05;;;;;;;;;;4975320;28;20042;-71
2022/08/30 13:44:03;;;;;;;2.95;0.95;;;;;;;;;;4975485;28;20053;-70
2022/08/30 13:46:29;;;;;;;5.68;1.17;;;;;;;;;;4992826;28;20085;-71
2022/08/30 13:49:01;;;;;;;2.83;0.80;;;;;;;;;;4991866;28;20078;-71
2022/08/30 13:51:28;;;;;;;3.40;0.90;;;;;;;;;;4992740;28;20125;-71
2022/08/30 13:53:54;;;;;;;8.00;1.10;;;;;;;;;;4992636;28;20055;-71
2022/08/30 13:56:20;;;;;;;3.13;1.08;;;;;;;;;;4991054;28;20486;-71
2022/08/30 13:58:46;;;;;;;4.57;1.20;;;;;;;;;;4990571;28;20046;-71
2022/08/30 14:01:12;;;;;;;4.35;1.15;;;;;;;;;;4974689;28;20038;-71
2022/08/30 14:03:38;;;;;;;3.40;1.00;;;;;;;;;;4975415;28;20094;-71
2022/08/30 14:06:05;;;;;;;7.55;1.00;;;;;;;;;;4988708;28;20146;-71
2022/08/30 14:08:31;;;;;;;2.40;0.90;;;;;;;;;;4973141;28;20055;-72
2022/08/30 14:10:58;;;;;;;3.65;0.90;;;;;;;;;;4972824;28;20054;-71
2022/08/30 14:13:27;;;;;;;4.32;1.10;;;;;;;;;;4985819;28;20042;-71
2022/08/30 14:15:54;;;;;;;4.25;0.88;;;;;;;;;;4996680;28;20185;-71
2022/08/30 14:18:20;;;;;;;3.72;1.00;;;;;;;;;;4996524;28;20497;-71
2022/08/30 14:20:46;;;;;;;3.22;1.00;;;;;;;;;;4996245;28;20494;-72
2022/08/30 14:23:12;;;;;;;5.22;1.00;;;;;;;;;;4996299;28;20050;-69
2022/08/30 14:25:38;;;;;;;3.67;1.10;;;;;;;;;;4991519;28;20544;-70
2022/08/30 14:28:04;;;;;;;2.58;0.90;;;;;;;;;;4977845;28;20046;-72
2022/08/30 14:30:31;;;;;;;2.63;0.95;;;;;;;;;;4990758;28;20058;-70
2022/08/30 14:32:57;;;;;;;5.53;1.60;;;;;;;;;;4989943;28;20057;-69
2022/08/30 14:35:23;;;;;;;2.72;1.00;;;;;;;;;;4993952;28;20061;-68
2022/08/30 14:37:50;;;;;;;4.78;1.23;;;;;;;;;;4993912;28;20146;-68
2022/08/30 14:40:17;;;;;;;4.28;1.10;;;;;;;;;;4972759;28;20053;-69
2022/08/30 14:42:43;;;;;;;2.42;0.90;;;;;;;;;;4987395;28;20062;-73
2022/08/30 14:45:10;;;;;;;3.13;0.98;;;;;;;;;;4999138;28;20045;-70
2022/08/30 14:47:36;;;;;;;3.88;1.10;;;;;;;;;;4995881;28;20050;-69